Main page
METAR-TAF:

METAR-TAF

Airports :

Toblach, Italy

latitude: 46-44N, longitude: 012-13E, elevation: 1222 m

Current weather observation

The report was made 30 minutes ago, at 14:55 UTC
Calm wind
Temperature 2°C
Humidity 80%
Pressure 1023 hPa
Visibility 10 km or more
no clouds below 1500 m and no cumulonimbus

METAR: LIVD 231455Z 00000KT CAVOK 02/M01 Q1023 RMK SKC VIS MIN 9999

Time: 16:25 (15:25 UTC)


TAF: missing

Weather observations and forecasts of more than 4000 airports (METAR and TAF reports).

The available stations are represented by yellow and red dots on the map.

Hover mouse over dot to see the name of the station.

Then click to see weather observations and forecasts.

To change the map : click on the green buttons with a black cross to zoom in, on the green button with a dash to zoom out, or on the green arrows for adjacent maps.


METAR-TAF: